Time;durP1;ratioP1;P1;durP2;ratioP2;P2;SDS_P1;SDS_P2;PMS_P1;PMS_P2;Temp;Humidity;BMP_temperature;BMP_pressure;BME280_temperature;BME280_humidity;BME280_pressure;Samples;Min_cycle;Max_cycle;Signal;HPM_P1;HPM_P2
2021/09/22 00:01:11;;;;;;;13.30;11.23;;;;;;;;;;5052652;28;20228;-77
2021/09/22 00:04:15;;;;;;;18.70;12.40;;;;;;;;;;5051943;28;20184;-77
2021/09/22 00:07:19;;;;;;;13.37;11.53;;;;;;;;;;5055583;28;20549;-77
2021/09/22 00:10:23;;;;;;;14.67;12.07;;;;;;;;;;5056589;28;20188;-77
2021/09/22 00:13:27;;;;;;;13.67;11.47;;;;;;;;;;5055673;28;20222;-77
2021/09/22 00:16:32;;;;;;;15.27;11.20;;;;;;;;;;5056460;28;20212;-77
2021/09/22 00:19:36;;;;;;;16.60;11.87;;;;;;;;;;5055505;28;20255;-77
2021/09/22 00:22:41;;;;;;;13.43;10.90;;;;;;;;;;5044136;28;20655;-77
2021/09/22 00:25:45;;;;;;;14.10;11.30;;;;;;;;;;5055526;28;20184;-77
2021/09/22 00:28:49;;;;;;;15.10;11.77;;;;;;;;;;5055467;28;20184;-77
2021/09/22 00:31:53;;;;;;;15.57;12.17;;;;;;;;;;5056141;28;20220;-77
2021/09/22 00:34:57;;;;;;;17.20;12.67;;;;;;;;;;5055082;28;20180;-77
2021/09/22 00:38:02;;;;;;;16.00;12.37;;;;;;;;;;5055531;28;20207;-77
2021/09/22 00:41:06;;;;;;;17.53;12.87;;;;;;;;;;5054872;28;20560;-77
2021/09/22 00:44:11;;;;;;;15.07;12.23;;;;;;;;;;5055133;28;20200;-77
2021/09/22 00:47:16;;;;;;;16.23;13.10;;;;;;;;;;5054872;28;20176;-77
2021/09/22 00:50:21;;;;;;;17.70;12.17;;;;;;;;;;5055069;28;20184;-77
2021/09/22 00:53:25;;;;;;;15.77;12.30;;;;;;;;;;5054694;28;20204;-77
2021/09/22 00:56:29;;;;;;;15.47;12.27;;;;;;;;;;5054800;28;20215;-77
2021/09/22 00:59:34;;;;;;;19.00;13.70;;;;;;;;;;5043530;28;20646;-77
2021/09/22 01:02:39;;;;;;;14.80;11.17;;;;;;;;;;5054489;28;20227;-77
2021/09/22 01:05:44;;;;;;;16.10;12.40;;;;;;;;;;5054782;28;20176;-77
2021/09/22 01:08:48;;;;;;;17.30;13.17;;;;;;;;;;5054747;28;20180;-77
2021/09/22 01:11:53;;;;;;;16.23;12.90;;;;;;;;;;5054241;28;20224;-77
2021/09/22 01:14:57;;;;;;;16.00;12.70;;;;;;;;;;5054665;28;20180;-77
2021/09/22 01:18:02;;;;;;;16.33;13.33;;;;;;;;;;5041916;28;20200;-77
2021/09/22 01:21:06;;;;;;;17.73;12.23;;;;;;;;;;5054437;28;20228;-77
2021/09/22 01:24:11;;;;;;;14.93;11.87;;;;;;;;;;5055186;28;20177;-77
2021/09/22 01:27:15;;;;;;;18.13;13.13;;;;;;;;;;5042913;28;20532;-77
2021/09/22 01:30:20;;;;;;;15.53;12.63;;;;;;;;;;5042872;28;20176;-77
2021/09/22 01:33:25;;;;;;;17.33;13.43;;;;;;;;;;5043050;28;20516;-77
2021/09/22 01:36:36;;;;;;;17.00;13.03;;;;;;;;;;5054767;28;20545;-77
2021/09/22 01:39:43;;;;;;;25.57;13.50;;;;;;;;;;5042975;28;20196;-77
2021/09/22 01:42:52;;;;;;;18.50;12.07;;;;;;;;;;5053728;28;20215;-77
2021/09/22 01:50:40;;;;;;;15.33;12.13;;;;;;;;;;5060221;28;20173;-77
2021/09/22 01:53:45;;;;;;;16.73;12.47;;;;;;;;;;5053562;28;20188;-77
2021/09/22 01:56:49;;;;;;;17.77;12.17;;;;;;;;;;5053970;28;20678;-77
2021/09/22 01:59:54;;;;;;;16.23;12.90;;;;;;;;;;5053679;28;20176;-77
2021/09/22 02:03:17;;;;;;;14.13;11.80;;;;;;;;;;5053596;28;20180;-77
2021/09/22 02:06:29;;;;;;;16.90;12.37;;;;;;;;;;5054770;28;20188;-77
2021/09/22 02:09:33;;;;;;;14.80;12.53;;;;;;;;;;5053308;28;20184;-77
2021/09/22 02:12:40;;;;;;;17.93;12.27;;;;;;;;;;5041793;28;20228;-77
2021/09/22 02:15:44;;;;;;;14.60;12.67;;;;;;;;;;5053193;28;20179;-77
2021/09/22 02:19:26;;;;;;;15.97;11.53;;;;;;;;;;5053070;28;20185;-77
2021/09/22 02:23:03;;;;;;;16.87;12.43;;;;;;;;;;5053626;28;20184;-77
2021/09/22 02:26:07;;;;;;;16.07;12.20;;;;;;;;;;5053185;28;20180;-77
2021/09/22 02:29:15;;;;;;;17.87;13.47;;;;;;;;;;5052420;28;20168;-77
2021/09/22 02:32:22;;;;;;;16.47;12.57;;;;;;;;;;5041384;28;20215;-77
2021/09/22 02:35:26;;;;;;;15.90;12.13;;;;;;;;;;5053152;28;20654;-77
2021/09/22 02:38:51;;;;;;;15.57;12.23;;;;;;;;;;5052768;28;20205;-77
2021/09/22 02:41:56;;;;;;;17.87;12.80;;;;;;;;;;5041138;28;20215;-76
2021/09/22 02:45:02;;;;;;;16.23;11.73;;;;;;;;;;5053192;28;20184;-77
2021/09/22 02:48:08;;;;;;;16.30;12.20;;;;;;;;;;5041859;28;20177;-77
2021/09/22 02:51:14;;;;;;;17.00;12.47;;;;;;;;;;5052785;28;20220;-77
2021/09/22 02:54:18;;;;;;;20.50;14.10;;;;;;;;;;5052901;28;20630;-77
2021/09/22 02:57:40;;;;;;;18.37;13.30;;;;;;;;;;5053460;28;20207;-77
2021/09/22 03:00:45;;;;;;;15.67;12.10;;;;;;;;;;5052442;28;20532;-76
2021/09/22 03:03:49;;;;;;;16.83;12.83;;;;;;;;;;5052788;28;20184;-77
2021/09/22 03:06:53;;;;;;;19.40;13.73;;;;;;;;;;5052448;28;20516;-77
2021/09/22 03:09:57;;;;;;;18.83;14.00;;;;;;;;;;5052728;28;20188;-77
2021/09/22 03:13:02;;;;;;;20.23;14.17;;;;;;;;;;5086105;22;20234;-85
2021/09/22 03:16:08;;;;;;;19.00;14.60;;;;;;;;;;5038878;28;20183;-86
2021/09/22 03:19:13;;;;;;;19.03;13.43;;;;;;;;;;5038554;28;20184;-86
2021/09/22 03:22:17;;;;;;;15.93;12.57;;;;;;;;;;5038304;28;20684;-85
2021/09/22 03:25:57;;;;;;;19.73;13.07;;;;;;;;;;5052501;28;20654;-86
2021/09/22 03:29:03;;;;;;;17.43;12.33;;;;;;;;;;5041492;28;20210;-85
2021/09/22 03:32:09;;;;;;;17.83;12.60;;;;;;;;;;5029929;28;20215;-86
2021/09/22 03:35:13;;;;;;;14.00;11.03;;;;;;;;;;5052733;28;20180;-86
2021/09/22 03:38:18;;;;;;;13.90;10.80;;;;;;;;;;5029814;28;20223;-86
2021/09/22 03:41:27;;;;;;;13.40;10.40;;;;;;;;;;5032230;28;20247;-86
2021/09/22 03:44:31;;;;;;;13.67;10.87;;;;;;;;;;5045221;28;20180;-86
2021/09/22 03:47:35;;;;;;;13.87;11.20;;;;;;;;;;5033859;28;20180;-86
2021/09/22 03:50:39;;;;;;;14.67;11.27;;;;;;;;;;5042070;28;20207;-86
2021/09/22 03:53:49;;;;;;;14.83;11.37;;;;;;;;;;5053976;28;20677;-86
2021/09/22 03:56:53;;;;;;;16.27;10.83;;;;;;;;;;5064975;28;20180;-86
2021/09/22 03:59:58;;;;;;;15.57;12.00;;;;;;;;;;5044764;28;20196;-85
2021/09/22 04:03:04;;;;;;;15.23;11.83;;;;;;;;;;5045341;28;20215;-86
2021/09/22 04:06:09;;;;;;;15.37;11.47;;;;;;;;;;5044802;28;20184;-86
2021/09/22 04:09:14;;;;;;;15.80;12.03;;;;;;;;;;5044270;28;20192;-86
2021/09/22 04:12:18;;;;;;;15.20;11.60;;;;;;;;;;5014693;28;20220;-86
2021/09/22 04:15:23;;;;;;;17.07;12.83;;;;;;;;;;5001947;28;20569;-86
2021/09/22 04:18:27;;;;;;;21.40;15.00;;;;;;;;;;5001944;28;20559;-86
2021/09/22 04:21:31;;;;;;;16.87;12.27;;;;;;;;;;5013306;28;20200;-85
2021/09/22 04:24:35;;;;;;;18.07;13.50;;;;;;;;;;5002558;28;20181;-85
2021/09/22 04:27:40;;;;;;;18.53;13.73;;;;;;;;;;5002174;28;20200;-86
2021/09/22 04:30:54;;;;;;;25.77;13.90;;;;;;;;;;5003683;28;20181;-86
2021/09/22 04:34:17;;;;;;;23.23;13.43;;;;;;;;;;5015775;28;20181;-86
2021/09/22 04:37:40;;;;;;;28.23;13.63;;;;;;;;;;5015949;28;20217;-86
2021/09/22 04:41:03;;;;;;;23.73;12.83;;;;;;;;;;5016667;28;20185;-85
2021/09/22 04:44:26;;;;;;;19.07;14.73;;;;;;;;;;5037720;28;20177;-85
2021/09/22 04:47:49;;;;;;;19.13;14.20;;;;;;;;;;5036513;28;20181;-85
2021/09/22 04:51:11;;;;;;;19.20;13.67;;;;;;;;;;5015973;28;20181;-85
2021/09/22 04:54:33;;;;;;;18.73;14.07;;;;;;;;;;5016063;28;20513;-85
2021/09/22 04:57:56;;;;;;;18.60;13.83;;;;;;;;;;5017015;28;20212;-85
2021/09/22 05:01:19;;;;;;;22.03;14.40;;;;;;;;;;5016337;28;20513;-86
2021/09/22 05:04:42;;;;;;;20.37;14.70;;;;;;;;;;5016735;28;20176;-85
2021/09/22 05:08:04;;;;;;;18.60;13.73;;;;;;;;;;5015976;28;20181;-85
2021/09/22 05:11:27;;;;;;;20.50;14.30;;;;;;;;;;5028276;28;20196;-85
2021/09/22 05:14:50;;;;;;;20.97;14.17;;;;;;;;;;5066932;28;20184;-85
2021/09/22 05:18:12;;;;;;;21.93;14.00;;;;;;;;;;5064389;28;20207;-85
2021/09/22 05:21:35;;;;;;;21.80;14.53;;;;;;;;;;5075305;28;20175;-86
2021/09/22 05:24:59;;;;;;;21.70;13.20;;;;;;;;;;5076294;28;20180;-86
2021/09/22 05:28:21;;;;;;;17.50;13.43;;;;;;;;;;5063941;28;20175;-85
2021/09/22 05:31:44;;;;;;;19.00;13.53;;;;;;;;;;5064428;28;20180;-85
2021/09/22 05:35:08;;;;;;;20.40;14.33;;;;;;;;;;5046411;28;20244;-86
2021/09/22 05:38:30;;;;;;;24.57;14.20;;;;;;;;;;5056257;28;20212;-86
2021/09/22 05:41:53;;;;;;;22.33;14.27;;;;;;;;;;5046040;28;20537;-85
2021/09/22 05:45:16;;;;;;;28.93;14.00;;;;;;;;;;5057237;28;20188;-86
2021/09/22 05:48:38;;;;;;;26.90;15.93;;;;;;;;;;5058399;28;20508;-86
2021/09/22 05:52:02;;;;;;;22.67;13.83;;;;;;;;;;5065036;28;20231;-85
2021/09/22 05:55:24;;;;;;;21.60;14.53;;;;;;;;;;5067934;28;20527;-85
2021/09/22 05:58:47;;;;;;;24.60;15.30;;;;;;;;;;5054506;28;20207;-86
2021/09/22 06:02:10;;;;;;;24.07;15.63;;;;;;;;;;5066987;28;20223;-86
2021/09/22 06:05:32;;;;;;;23.40;14.97;;;;;;;;;;5054679;28;20535;-86
2021/09/22 06:09:06;;;;;;;26.37;14.97;;;;;;;;;;5065441;28;20187;-85
2021/09/22 06:12:32;;;;;;;27.70;15.73;;;;;;;;;;5068062;28;20569;-86
2021/09/22 06:15:38;;;;;;;24.67;14.47;;;;;;;;;;5053930;28;20188;-85
2021/09/22 06:18:42;;;;;;;26.93;15.67;;;;;;;;;;5052701;28;20203;-86
2021/09/22 06:21:50;;;;;;;24.27;16.30;;;;;;;;;;5063621;28;20183;-86
2021/09/22 06:24:54;;;;;;;24.77;16.53;;;;;;;;;;5063148;28;20183;-85
2021/09/22 06:28:00;;;;;;;28.90;16.17;;;;;;;;;;5063112;28;20183;-85
2021/09/22 06:31:04;;;;;;;21.27;15.57;;;;;;;;;;5026454;28;20196;-85
2021/09/22 06:34:08;;;;;;;22.53;16.07;;;;;;;;;;5021864;28;20200;-85
2021/09/22 06:37:12;;;;;;;18.20;15.10;;;;;;;;;;5011768;28;20196;-85
2021/09/22 06:40:31;;;;;;;25.20;14.87;;;;;;;;;;5021395;28;20179;-86
2021/09/22 06:43:38;;;;;;;25.67;15.63;;;;;;;;;;5017345;28;20222;-86
2021/09/22 06:46:42;;;;;;;24.93;15.27;;;;;;;;;;5010542;28;20686;-86
2021/09/22 06:49:47;;;;;;;16.57;12.90;;;;;;;;;;5051679;28;20211;-87
2021/09/22 06:52:51;;;;;;;19.83;14.70;;;;;;;;;;5030394;28;20646;-87
2021/09/22 06:55:56;;;;;;;19.27;14.00;;;;;;;;;;5014637;28;20207;-87
2021/09/22 06:58:59;;;;;;;20.93;14.00;;;;;;;;;;5018799;28;20223;-87
2021/09/22 07:02:04;;;;;;;19.87;14.30;;;;;;;;;;5040961;28;20606;-87
2021/09/22 07:05:11;;;;;;;18.00;14.30;;;;;;;;;;5028728;28;20183;-86
2021/09/22 07:08:15;;;;;;;15.30;13.70;;;;;;;;;;5025695;28;20200;-86
2021/09/22 07:11:19;;;;;;;16.20;13.23;;;;;;;;;;5008789;28;20271;-86
2021/09/22 07:14:23;;;;;;;17.60;13.50;;;;;;;;;;5019436;28;20184;-85
2021/09/22 07:17:27;;;;;;;16.53;13.20;;;;;;;;;;5011928;28;20183;-86
2021/09/22 07:20:31;;;;;;;17.23;14.13;;;;;;;;;;5035500;28;20188;-85
2021/09/22 07:23:35;;;;;;;19.47;14.70;;;;;;;;;;5023998;28;20216;-86
2021/09/22 07:26:39;;;;;;;18.07;15.30;;;;;;;;;;5012817;28;20215;-85
2021/09/22 07:29:44;;;;;;;18.87;15.20;;;;;;;;;;5013185;28;20184;-86
2021/09/22 07:32:49;;;;;;;18.47;15.10;;;;;;;;;;5012457;28;20223;-85
2021/09/22 07:35:54;;;;;;;53.97;17.30;;;;;;;;;;5023712;28;20203;-85
2021/09/22 07:38:58;;;;;;;69.57;16.90;;;;;;;;;;5035389;28;20227;-86
2021/09/22 07:42:03;;;;;;;19.57;14.50;;;;;;;;;;5024983;28;20714;-86
2021/09/22 07:45:07;;;;;;;22.70;16.47;;;;;;;;;;4999368;28;20184;-86
2021/09/22 07:48:12;;;;;;;17.80;14.27;;;;;;;;;;4999846;28;20540;-87
2021/09/22 07:51:16;;;;;;;19.00;15.60;;;;;;;;;;5010594;28;20228;-86
2021/09/22 07:54:20;;;;;;;17.17;14.10;;;;;;;;;;5030780;28;20669;-85
2021/09/22 07:57:24;;;;;;;18.53;14.73;;;;;;;;;;5030394;28;20191;-86
2021/09/22 08:00:28;;;;;;;18.17;13.97;;;;;;;;;;5041300;28;20222;-86
2021/09/22 08:03:32;;;;;;;34.10;15.30;;;;;;;;;;5018274;28;20578;-86
2021/09/22 08:06:37;;;;;;;22.03;15.93;;;;;;;;;;5018793;28;20191;-86
2021/09/22 08:09:41;;;;;;;23.63;15.87;;;;;;;;;;5018908;28;20207;-86
2021/09/22 08:12:47;;;;;;;20.03;15.00;;;;;;;;;;5052675;28;20250;-87
2021/09/22 08:15:51;;;;;;;18.47;15.27;;;;;;;;;;5041437;28;20195;-86
2021/09/22 08:18:55;;;;;;;18.57;13.57;;;;;;;;;;5051428;28;20661;-86
2021/09/22 08:21:59;;;;;;;22.80;14.07;;;;;;;;;;5026089;28;20231;-86
2021/09/22 08:25:04;;;;;;;18.97;13.87;;;;;;;;;;5011350;28;20188;-86
2021/09/22 08:28:08;;;;;;;15.13;12.23;;;;;;;;;;5039328;28;20203;-86
2021/09/22 08:31:12;;;;;;;16.87;12.67;;;;;;;;;;5019982;28;20187;-86
2021/09/22 08:34:17;;;;;;;18.23;13.03;;;;;;;;;;5016500;28;20207;-86
2021/09/22 08:37:22;;;;;;;17.90;12.83;;;;;;;;;;5011517;28;20184;-86
2021/09/22 08:40:26;;;;;;;15.53;12.27;;;;;;;;;;5033412;28;20228;-86
2021/09/22 08:43:30;;;;;;;17.30;12.47;;;;;;;;;;5011113;28;20795;-86
2021/09/22 08:46:36;;;;;;;13.63;10.17;;;;;;;;;;5022353;28;20199;-86
2021/09/22 08:49:41;;;;;;;11.90;10.20;;;;;;;;;;5022413;28;20192;-86
2021/09/22 08:52:46;;;;;;;14.03;10.77;;;;;;;;;;5000029;28;20227;-86
2021/09/22 08:55:51;;;;;;;10.50;8.90;;;;;;;;;;5041347;28;20207;-85
2021/09/22 08:58:55;;;;;;;10.33;9.23;;;;;;;;;;5030730;28;20224;-87
2021/09/22 09:02:04;;;;;;;11.73;10.03;;;;;;;;;;5041358;28;20219;-86
2021/09/22 09:05:11;;;;;;;13.23;10.20;;;;;;;;;;5019038;28;20187;-86
2021/09/22 09:08:15;;;;;;;12.63;9.77;;;;;;;;;;5019078;28;20188;-86
2021/09/22 09:11:27;;;;;;;10.93;8.97;;;;;;;;;;5031033;28;20643;-86
2021/09/22 09:14:35;;;;;;;58.57;12.90;;;;;;;;;;5030270;28;20200;-86
2021/09/22 09:17:45;;;;;;;11.13;8.47;;;;;;;;;;5031704;28;20199;-86
2021/09/22 09:20:53;;;;;;;19.87;8.30;;;;;;;;;;5017145;28;20224;-86
2021/09/22 09:23:58;;;;;;;18.80;7.87;;;;;;;;;;5017976;28;20224;-87
2021/09/22 09:27:09;;;;;;;13.93;7.93;;;;;;;;;;5008311;28;20184;-85
2021/09/22 09:30:16;;;;;;;9.13;7.27;;;;;;;;;;5008446;28;20551;-86
2021/09/22 09:33:47;;;;;;;14.47;7.27;;;;;;;;;;5008197;28;20220;-86
2021/09/22 09:36:51;;;;;;;9.37;6.97;;;;;;;;;;5023248;28;20208;-86
2021/09/22 09:39:55;;;;;;;8.10;7.23;;;;;;;;;;5027492;28;20211;-86
2021/09/22 09:43:08;;;;;;;8.37;7.33;;;;;;;;;;5040192;28;20226;-86
2021/09/22 09:46:18;;;;;;;7.97;6.60;;;;;;;;;;4997060;28;20189;-87
2021/09/22 09:49:29;;;;;;;9.00;6.73;;;;;;;;;;5008228;28;20177;-87
2021/09/22 09:52:55;;;;;;;9.50;7.00;;;;;;;;;;4997074;28;20578;-86
2021/09/22 09:56:00;;;;;;;7.73;6.97;;;;;;;;;;4996596;28;20211;-87
2021/09/22 09:59:05;;;;;;;7.33;6.43;;;;;;;;;;5018936;28;20208;-87
2021/09/22 10:02:25;;;;;;;10.53;6.93;;;;;;;;;;5021660;28;20563;-86
2021/09/22 10:05:29;;;;;;;8.30;6.57;;;;;;;;;;5049776;28;20184;-86
2021/09/22 10:08:33;;;;;;;7.50;6.30;;;;;;;;;;5058416;28;20180;-86
2021/09/22 10:11:39;;;;;;;9.90;5.80;;;;;;;;;;5046744;28;20638;-86
2021/09/22 10:14:46;;;;;;;7.07;5.17;;;;;;;;;;5058483;28;20188;-86
2021/09/22 10:17:52;;;;;;;9.07;5.83;;;;;;;;;;5036183;28;20191;-85
2021/09/22 10:20:56;;;;;;;13.50;5.40;;;;;;;;;;5057823;28;20219;-86
2021/09/22 10:23:34;;;;;;;10.30;5.10;;;;;;;;;;5082881;27;20799;-77
2021/09/22 10:26:12;;;;;;;10.47;6.20;;;;;;;;;;5107538;27;20869;-78
2021/09/22 10:28:50;;;;;;;13.27;6.03;;;;;;;;;;5067012;28;21222;-77
2021/09/22 10:31:29;;;;;;;9.30;5.40;;;;;;;;;;5128065;27;20855;-78
2021/09/22 10:34:06;;;;;;;8.07;5.77;;;;;;;;;;5067058;28;21462;-77
2021/09/22 10:36:43;;;;;;;9.00;6.23;;;;;;;;;;5067142;28;20807;-77
2021/09/22 10:39:47;;;;;;;7.87;5.40;;;;;;;;;;5066920;28;20830;-77
2021/09/22 10:42:29;;;;;;;7.63;6.10;;;;;;;;;;5066852;28;20937;-77
2021/09/22 10:45:12;;;;;;;14.20;5.83;;;;;;;;;;5128265;27;20835;-77
2021/09/22 10:47:49;;;;;;;8.00;5.57;;;;;;;;;;5067087;28;20810;-77
2021/09/22 10:50:41;;;;;;;7.73;5.43;;;;;;;;;;5066722;28;20852;-77
2021/09/22 10:53:30;;;;;;;160.93;14.93;;;;;;;;;;5066967;28;20818;-77
2021/09/22 10:56:15;;;;;;;12.53;5.67;;;;;;;;;;5066987;28;20799;-77
2021/09/22 10:58:58;;;;;;;30.47;7.07;;;;;;;;;;5067078;28;20840;-77
2021/09/22 11:01:35;;;;;;;9.17;5.33;;;;;;;;;;5066933;28;21295;-77
2021/09/22 11:04:13;;;;;;;8.07;5.80;;;;;;;;;;5060229;28;20830;-75
2021/09/22 11:06:54;;;;;;;7.87;5.23;;;;;;;;;;5063518;28;20865;-77
2021/09/22 11:09:32;;;;;;;7.57;4.93;;;;;;;;;;5087101;27;20816;-77
2021/09/22 11:12:10;;;;;;;11.90;5.33;;;;;;;;;;5066810;28;20856;-77
2021/09/22 11:14:55;;;;;;;7.40;4.97;;;;;;;;;;5127840;27;20851;-77
2021/09/22 11:17:34;;;;;;;6.67;4.83;;;;;;;;;;5110066;27;20804;-77
2021/09/22 11:20:10;;;;;;;8.93;5.33;;;;;;;;;;5107819;27;21493;-77
2021/09/22 11:22:47;;;;;;;16.53;5.10;;;;;;;;;;5127861;27;20859;-77
2021/09/22 11:25:24;;;;;;;32.27;7.70;;;;;;;;;;5067039;28;20806;-77
2021/09/22 11:28:08;;;;;;;11.70;5.63;;;;;;;;;;5128005;27;21487;-77
2021/09/22 11:30:54;;;;;;;13.63;5.43;;;;;;;;;;5128314;27;20832;-77
2021/09/22 11:33:31;;;;;;;11.57;5.10;;;;;;;;;;5067404;27;20844;-77
2021/09/22 11:36:08;;;;;;;21.40;5.87;;;;;;;;;;5066954;28;21719;-77
2021/09/22 11:38:46;;;;;;;7.77;4.20;;;;;;;;;;5066799;28;20833;-77
2021/09/22 11:41:22;;;;;;;11.27;4.47;;;;;;;;;;5067140;28;20822;-77
2021/09/22 11:44:07;;;;;;;5.70;4.90;;;;;;;;;;5066905;28;20807;-77
2021/09/22 11:47:08;;;;;;;5.73;4.57;;;;;;;;;;5067127;28;21400;-77
2021/09/22 11:49:47;;;;;;;9.10;4.90;;;;;;;;;;5067039;28;20833;-77
2021/09/22 11:52:26;;;;;;;7.90;4.47;;;;;;;;;;5066868;28;20864;-76
2021/09/22 11:55:05;;;;;;;7.27;5.10;;;;;;;;;;5128243;27;20844;-76
2021/09/22 11:57:42;;;;;;;6.50;4.20;;;;;;;;;;5067003;28;21262;-76
2021/09/22 12:00:24;;;;;;;7.00;4.17;;;;;;;;;;5066887;28;20849;-76
2021/09/22 12:03:06;;;;;;;5.97;4.27;;;;;;;;;;5087177;27;20839;-76
2021/09/22 12:05:43;;;;;;;10.80;4.80;;;;;;;;;;5067102;28;20815;-76
2021/09/22 12:08:20;;;;;;;6.60;4.07;;;;;;;;;;5066850;28;20844;-76
2021/09/22 12:10:57;;;;;;;11.90;4.47;;;;;;;;;;5107382;27;21458;-76
2021/09/22 12:13:44;;;;;;;7.93;3.73;;;;;;;;;;5067051;28;20810;-77
2021/09/22 12:16:23;;;;;;;11.77;3.50;;;;;;;;;;5067004;28;21280;-76
2021/09/22 12:19:01;;;;;;;7.30;3.73;;;;;;;;;;5067151;28;20811;-77
2021/09/22 12:21:37;;;;;;;13.70;4.27;;;;;;;;;;5107443;27;20827;-77
2021/09/22 12:24:16;;;;;;;5.40;3.63;;;;;;;;;;5067007;28;20836;-76
2021/09/22 12:26:53;;;;;;;5.60;3.53;;;;;;;;;;5107466;27;20838;-76
2021/09/22 12:29:29;;;;;;;4.87;3.70;;;;;;;;;;5128363;27;21527;-77
2021/09/22 12:32:06;;;;;;;7.80;4.13;;;;;;;;;;5127886;27;21293;-77
2021/09/22 12:34:44;;;;;;;7.43;3.90;;;;;;;;;;5107686;27;20821;-77
2021/09/22 12:37:23;;;;;;;6.03;4.07;;;;;;;;;;5067173;28;20844;-77
2021/09/22 12:40:05;;;;;;;7.00;4.00;;;;;;;;;;5066952;28;20799;-77
2021/09/22 12:42:47;;;;;;;8.70;4.00;;;;;;;;;;5107429;27;20849;-77
2021/09/22 12:45:31;;;;;;;9.60;4.93;;;;;;;;;;5127989;27;21286;-77
2021/09/22 12:48:08;;;;;;;6.97;4.20;;;;;;;;;;5128151;27;21406;-77
2021/09/22 12:50:45;;;;;;;5.20;3.23;;;;;;;;;;5128236;27;20843;-77
2021/09/22 12:53:30;;;;;;;34.30;5.43;;;;;;;;;;5124542;22;20901;-75
2021/09/22 12:56:15;;;;;;;8.23;3.97;;;;;;;;;;5111997;27;21272;-77
2021/09/22 12:58:53;;;;;;;4.23;3.60;;;;;;;;;;5101309;27;21262;-77
2021/09/22 13:01:33;;;;;;;4.87;3.67;;;;;;;;;;5132576;27;21258;-78
2021/09/22 13:04:09;;;;;;;6.47;3.00;;;;;;;;;;5071338;28;20803;-78
2021/09/22 13:06:50;;;;;;;8.33;3.10;;;;;;;;;;5070919;28;21251;-78
2021/09/22 13:09:35;;;;;;;12.80;3.80;;;;;;;;;;5111881;27;20811;-75
2021/09/22 13:12:27;;;;;;;8.83;3.67;;;;;;;;;;5111074;27;20819;-77
2021/09/22 13:15:03;;;;;;;5.43;2.97;;;;;;;;;;5071435;28;20807;-78
2021/09/22 13:17:40;;;;;;;5.67;3.37;;;;;;;;;;5111237;27;20857;-78
2021/09/22 13:20:16;;;;;;;9.67;3.90;;;;;;;;;;5111975;27;20804;-77
2021/09/22 13:22:53;;;;;;;5.70;3.30;;;;;;;;;;5070719;28;20865;-78
2021/09/22 13:25:29;;;;;;;22.83;3.97;;;;;;;;;;5071459;28;21253;-78
2021/09/22 13:28:06;;;;;;;8.23;3.17;;;;;;;;;;5071359;28;20833;-78
2021/09/22 13:30:43;;;;;;;10.27;3.40;;;;;;;;;;5111802;27;20826;-77
2021/09/22 13:33:19;;;;;;;9.30;3.40;;;;;;;;;;5071093;28;20822;-77
2021/09/22 13:35:56;;;;;;;9.37;4.27;;;;;;;;;;5071220;28;20829;-77
2021/09/22 13:38:33;;;;;;;6.80;3.57;;;;;;;;;;5111869;27;21250;-77
2021/09/22 13:41:09;;;;;;;17.53;4.20;;;;;;;;;;5070917;28;20853;-77
2021/09/22 13:43:46;;;;;;;10.10;3.90;;;;;;;;;;5111896;27;20792;-77
2021/09/22 13:46:23;;;;;;;10.80;3.80;;;;;;;;;;5111555;27;21202;-77
2021/09/22 13:49:02;;;;;;;3.60;3.17;;;;;;;;;;5071280;28;21364;-77
2021/09/22 13:51:44;;;;;;;11.00;3.63;;;;;;;;;;5111461;27;20838;-77
2021/09/22 13:54:20;;;;;;;11.53;3.53;;;;;;;;;;5111955;27;20860;-77
2021/09/22 13:56:57;;;;;;;6.87;3.67;;;;;;;;;;5111875;27;21453;-77
2021/09/22 13:59:33;;;;;;;4.27;3.23;;;;;;;;;;5071062;28;20794;-77
2021/09/22 14:02:11;;;;;;;5.93;3.03;;;;;;;;;;5071476;28;20818;-77
2021/09/22 14:04:48;;;;;;;5.83;3.07;;;;;;;;;;5112043;27;20821;-77
2021/09/22 14:07:25;;;;;;;8.17;3.20;;;;;;;;;;5070872;28;20807;-75
2021/09/22 14:10:02;;;;;;;10.70;3.20;;;;;;;;;;5071505;28;20803;-77
2021/09/22 14:12:40;;;;;;;7.73;2.93;;;;;;;;;;5111796;27;21442;-77
2021/09/22 14:15:16;;;;;;;5.67;2.93;;;;;;;;;;5111461;27;21276;-77
2021/09/22 14:17:53;;;;;;;6.53;2.23;;;;;;;;;;5111922;27;20814;-77
2021/09/22 14:20:30;;;;;;;6.47;2.70;;;;;;;;;;5071390;28;20826;-77
2021/09/22 14:23:27;;;;;;;5.47;2.87;;;;;;;;;;5100091;27;20859;-77
2021/09/22 14:26:06;;;;;;;11.10;3.17;;;;;;;;;;5112120;27;20792;-79
2021/09/22 14:28:45;;;;;;;2.90;2.30;;;;;;;;;;5071353;28;20821;-79
2021/09/22 14:31:28;;;;;;;8.27;2.83;;;;;;;;;;5111975;27;21401;-75
2021/09/22 14:34:06;;;;;;;16.03;2.87;;;;;;;;;;5112039;27;21250;-76
2021/09/22 14:36:46;;;;;;;9.30;2.60;;;;;;;;;;5071166;28;21244;-79
2021/09/22 14:39:22;;;;;;;3.40;2.13;;;;;;;;;;5112064;27;20841;-77
2021/09/22 14:41:59;;;;;;;13.30;3.23;;;;;;;;;;5111837;27;20822;-77
2021/09/22 14:44:37;;;;;;;28.17;3.80;;;;;;;;;;5071252;28;21198;-76
2021/09/22 14:47:14;;;;;;;6.07;2.50;;;;;;;;;;5071607;28;20807;-77
2021/09/22 14:50:06;;;;;;;6.57;2.60;;;;;;;;;;5071300;28;20766;-77
2021/09/22 14:52:44;;;;;;;6.03;2.20;;;;;;;;;;5111028;27;20842;-77
2021/09/22 14:55:22;;;;;;;5.83;2.30;;;;;;;;;;5071364;28;20794;-77
2021/09/22 14:58:00;;;;;;;21.33;3.40;;;;;;;;;;5071266;28;20806;-77
2021/09/22 15:00:37;;;;;;;3.97;2.20;;;;;;;;;;5111536;27;20825;-77
2021/09/22 15:03:14;;;;;;;8.10;2.77;;;;;;;;;;5071325;28;20806;-77
2021/09/22 15:05:53;;;;;;;9.20;2.50;;;;;;;;;;5111923;27;20830;-77
2021/09/22 15:08:31;;;;;;;4.70;2.10;;;;;;;;;;5071252;28;20825;-77
2021/09/22 15:11:09;;;;;;;9.30;3.20;;;;;;;;;;5071281;28;20931;-79
2021/09/22 15:13:46;;;;;;;6.13;2.43;;;;;;;;;;5111874;27;20796;-77
2021/09/22 15:16:28;;;;;;;10.50;2.23;;;;;;;;;;5111873;27;20795;-77
2021/09/22 15:19:04;;;;;;;6.07;2.07;;;;;;;;;;5071271;28;21220;-77
2021/09/22 15:21:42;;;;;;;3.83;2.50;;;;;;;;;;5070909;28;21282;-76
2021/09/22 15:24:19;;;;;;;6.77;2.37;;;;;;;;;;5071335;28;20807;-77
2021/09/22 15:26:57;;;;;;;6.67;2.40;;;;;;;;;;5071327;28;20829;-77
2021/09/22 15:29:52;;;;;;;7.10;2.03;;;;;;;;;;5111904;27;20893;-77
2021/09/22 15:32:32;;;;;;;15.40;2.60;;;;;;;;;;5112024;27;20873;-77
2021/09/22 15:35:10;;;;;;;11.23;2.63;;;;;;;;;;5071584;28;20837;-77
2021/09/22 15:37:48;;;;;;;9.10;2.73;;;;;;;;;;5070708;28;20825;-77
2021/09/22 15:40:27;;;;;;;7.23;2.53;;;;;;;;;;5071302;28;20795;-77
2021/09/22 15:43:06;;;;;;;5.20;2.47;;;;;;;;;;5071345;28;20817;-77
2021/09/22 15:45:42;;;;;;;5.50;2.23;;;;;;;;;;5071329;28;20923;-77
2021/09/22 15:48:19;;;;;;;7.77;2.40;;;;;;;;;;5071322;28;20821;-77
2021/09/22 15:50:56;;;;;;;12.20;2.60;;;;;;;;;;5071208;28;21656;-77
2021/09/22 15:53:34;;;;;;;14.70;3.17;;;;;;;;;;5071346;28;20825;-77
2021/09/22 15:56:11;;;;;;;30.27;3.80;;;;;;;;;;5111915;27;20853;-77
2021/09/22 15:58:50;;;;;;;12.77;2.70;;;;;;;;;;5071342;28;20825;-77
2021/09/22 16:01:28;;;;;;;20.13;3.20;;;;;;;;;;5111027;27;20978;-77
2021/09/22 16:04:06;;;;;;;12.90;2.93;;;;;;;;;;5071265;28;20807;-77
2021/09/22 16:06:43;;;;;;;8.97;2.70;;;;;;;;;;5111494;27;21276;-77
2021/09/22 16:09:20;;;;;;;14.87;3.03;;;;;;;;;;5071375;28;20833;-77
2021/09/22 16:11:58;;;;;;;14.20;2.60;;;;;;;;;;5071298;28;20845;-77
2021/09/22 16:14:36;;;;;;;14.37;3.20;;;;;;;;;;5111718;27;20818;-77
2021/09/22 16:17:13;;;;;;;6.37;2.70;;;;;;;;;;5111895;27;20799;-77
2021/09/22 16:19:49;;;;;;;17.23;3.10;;;;;;;;;;5071298;28;20880;-77
2021/09/22 16:22:26;;;;;;;7.13;2.53;;;;;;;;;;5070576;28;20830;-77
2021/09/22 16:25:05;;;;;;;9.27;2.70;;;;;;;;;;5071349;28;20825;-77
2021/09/22 16:27:43;;;;;;;5.57;2.60;;;;;;;;;;5111882;27;20838;-77
2021/09/22 16:30:22;;;;;;;15.67;3.07;;;;;;;;;;5070688;28;20829;-77
2021/09/22 16:33:00;;;;;;;21.77;4.23;;;;;;;;;;5111810;27;21430;-77
2021/09/22 16:35:37;;;;;;;23.83;3.63;;;;;;;;;;5111915;27;20829;-77
2021/09/22 16:38:14;;;;;;;10.60;2.57;;;;;;;;;;5111900;27;20796;-77
2021/09/22 16:40:54;;;;;;;6.57;2.77;;;;;;;;;;5071196;28;20806;-77
2021/09/22 16:43:33;;;;;;;5.27;2.40;;;;;;;;;;5071303;28;21226;-77
2021/09/22 16:46:12;;;;;;;8.27;3.10;;;;;;;;;;5070666;28;20834;-77
2021/09/22 16:48:50;;;;;;;8.17;2.63;;;;;;;;;;5111856;27;21365;-77
2021/09/22 16:51:28;;;;;;;10.00;3.37;;;;;;;;;;5111490;27;20857;-77
2021/09/22 16:54:22;;;;;;;19.87;3.97;;;;;;;;;;5194524;27;24560;-77
2021/09/22 16:57:16;;;;;;;16.50;3.73;;;;;;;;;;5194487;27;24555;-77
2021/09/22 16:59:53;;;;;;;15.33;3.57;;;;;;;;;;5111860;27;20869;-77
2021/09/22 17:02:29;;;;;;;10.50;4.87;;;;;;;;;;5007878;28;20828;-77
2021/09/22 17:05:06;;;;;;;12.13;4.33;;;;;;;;;;5111900;27;20796;-77
2021/09/22 17:07:44;;;;;;;20.47;4.07;;;;;;;;;;5111165;27;20800;-77
2021/09/22 17:10:28;;;;;;;40.83;4.63;;;;;;;;;;5111650;27;24585;-77
2021/09/22 17:13:07;;;;;;;26.97;4.37;;;;;;;;;;5071061;28;20806;-77
2021/09/22 17:15:45;;;;;;;8.90;4.10;;;;;;;;;;5111020;27;21264;-77
2021/09/22 17:18:24;;;;;;;5.63;3.30;;;;;;;;;;5111833;27;21437;-77
2021/09/22 17:21:01;;;;;;;6.90;3.73;;;;;;;;;;5111706;27;20877;-77